createdAt,value
2022-08-19T00:02:28.202Z,5.40
2022-08-19T00:05:31.577Z,5.55
2022-08-19T00:08:34.155Z,5.93
2022-08-19T00:11:38.510Z,6.20
2022-08-19T00:14:41.866Z,6.50
2022-08-19T00:17:45.547Z,6.62
2022-08-19T00:20:48.074Z,6.78
2022-08-19T00:23:51.362Z,6.90
2022-08-19T00:26:53.820Z,6.40
2022-08-19T00:29:59.911Z,6.70
2022-08-19T00:33:02.339Z,6.45
2022-08-19T00:36:08.222Z,6.75
2022-08-19T00:39:11.399Z,6.30
2022-08-19T00:42:15.816Z,6.78
2022-08-19T00:45:21.917Z,6.53
2022-08-19T00:48:24.650Z,6.90
2022-08-19T00:51:30.604Z,6.87
2022-08-19T00:54:34.162Z,7.25
2022-08-19T00:57:40.779Z,7.20
2022-08-19T01:00:44.365Z,6.32
2022-08-19T01:03:57.485Z,5.97
2022-08-19T01:07:03.395Z,6.78
2022-08-19T01:10:15.575Z,6.05
2022-08-19T01:13:26.300Z,6.85
2022-08-19T01:16:30.856Z,6.70
2022-08-19T01:19:44.253Z,6.30
2022-08-19T01:22:57.512Z,6.65
2022-08-19T01:26:00.296Z,6.57
2022-08-19T01:29:05.313Z,5.90
2022-08-19T01:32:33.288Z,5.82
2022-08-19T01:35:38.012Z,6.43
2022-08-19T01:38:44.344Z,6.20
2022-08-19T01:41:49.130Z,5.97
2022-08-19T01:44:51.915Z,6.22
2022-08-19T01:48:01.482Z,6.10
2022-08-19T01:51:06.788Z,6.53
2022-08-19T01:54:12.467Z,6.20
2022-08-19T01:57:15.746Z,6.60
2022-08-19T02:00:20.898Z,6.18
2022-08-19T02:03:24.147Z,6.95
2022-08-19T02:06:26.917Z,6.20
2022-08-19T02:09:32.166Z,6.78
2022-08-19T02:12:35.054Z,6.50
2022-08-19T02:15:40.713Z,6.62
2022-08-19T02:18:43.183Z,6.55
2022-08-19T02:21:46.071Z,6.80
2022-08-19T02:24:48.945Z,6.80
2022-08-19T02:27:51.817Z,6.85
2022-08-19T02:30:54.392Z,6.57
2022-08-19T02:33:57.872Z,6.60
2022-08-19T02:37:03.646Z,6.50
2022-08-19T02:40:12.558Z,7.10
2022-08-19T02:43:15.395Z,6.75
2022-08-19T02:46:22.562Z,6.85
2022-08-19T02:49:25.204Z,7.07
2022-08-19T02:52:30.579Z,6.97
2022-08-19T02:55:33.152Z,6.78
2022-08-19T02:58:49.687Z,7.03
2022-08-19T03:01:53.237Z,6.93
2022-08-19T03:04:56.197Z,6.87
2022-08-19T03:07:58.721Z,6.82
2022-08-19T03:11:01.580Z,7.18
2022-08-19T03:14:05.521Z,7.40
2022-08-19T03:17:09.011Z,7.22
2022-08-19T03:20:11.770Z,7.35
2022-08-19T03:23:16.276Z,7.50
2022-08-19T03:26:18.754Z,7.03
2022-08-19T03:29:30.312Z,6.37
2022-08-19T03:32:33.557Z,7.45
2022-08-19T03:35:40.133Z,7.28
2022-08-19T03:38:49.370Z,7.30
2022-08-19T03:42:32.808Z,7.50
2022-08-19T03:45:26.250Z,6.95
2022-08-19T03:48:32.783Z,6.78
2022-08-19T03:51:38.657Z,7.07
2022-08-19T03:54:41.425Z,7.57
2022-08-19T03:57:43.980Z,7.18
2022-08-19T04:00:46.890Z,7.00
2022-08-19T04:03:50.269Z,7.10
2022-08-19T04:06:53.903Z,6.90
2022-08-19T04:09:56.881Z,6.65
2022-08-19T04:12:59.454Z,7.12
2022-08-19T04:16:02.458Z,7.45
2022-08-19T04:19:07.533Z,6.65
2022-08-19T04:22:12.198Z,6.70
2022-08-19T04:25:14.771Z,7.00
2022-08-19T04:28:17.713Z,6.37
2022-08-19T04:31:27.744Z,7.30
2022-08-19T04:34:30.982Z,7.12
2022-08-19T04:37:35.002Z,7.10
2022-08-19T04:41:01.747Z,6.93
2022-08-19T04:44:04.798Z,7.10
2022-08-19T04:47:11.434Z,6.90
2022-08-19T04:50:14.842Z,7.10
2022-08-19T04:53:21.368Z,6.97
2022-08-19T04:56:27.211Z,7.18
2022-08-19T04:59:30.107Z,7.32
2022-08-19T05:02:33.157Z,6.78
2022-08-19T05:05:44.889Z,7.03
2022-08-19T05:08:48.442Z,6.62
2022-08-19T05:11:54.888Z,6.75
2022-08-19T05:14:58.782Z,6.78
2022-08-19T05:18:20.026Z,7.00
2022-08-19T05:21:42.635Z,6.43
2022-08-19T05:25:09.401Z,6.93
2022-08-19T05:28:08.073Z,6.90
2022-08-19T05:31:11.343Z,6.87
2022-08-19T05:34:20.322Z,6.47
2022-08-19T05:40:25.950Z,6.53
2022-08-19T05:43:29.704Z,6.37
2022-08-19T05:46:32.575Z,6.62
2022-08-19T05:49:37.820Z,6.45
2022-08-19T05:52:43.708Z,6.85
2022-08-19T05:55:48.812Z,6.57
2022-08-19T05:58:51.450Z,6.12
2022-08-19T06:01:56.584Z,6.12
2022-08-19T06:04:59.514Z,6.85
2022-08-19T06:08:02.116Z,6.30
2022-08-19T06:11:33.579Z,6.50
2022-08-19T06:14:40.313Z,7.80
2022-08-19T06:17:47.554Z,6.87
2022-08-19T06:20:56.009Z,6.10
2022-08-19T06:23:59.754Z,5.90
2022-08-19T06:27:02.603Z,5.95
2022-08-19T06:30:06.402Z,6.25
2022-08-19T06:33:09.297Z,6.00
2022-08-19T06:36:32.354Z,6.18
2022-08-19T06:39:39.214Z,5.80
2022-08-19T06:42:50.236Z,5.75
2022-08-19T06:45:58.231Z,5.82
2022-08-19T06:49:02.293Z,6.15
2022-08-19T06:52:06.676Z,5.95
2022-08-19T06:55:10.238Z,5.25
2022-08-19T06:58:12.961Z,5.95
2022-08-19T07:01:16.273Z,5.95
2022-08-19T07:04:22.077Z,5.50
2022-08-19T07:07:25.122Z,4.50
2022-08-19T07:10:27.708Z,4.80
2022-08-19T07:13:30.676Z,5.03
2022-08-19T07:16:33.295Z,4.90
2022-08-19T07:19:36.351Z,4.90
2022-08-19T07:22:40.249Z,4.97
2022-08-19T07:25:43.567Z,4.78
2022-08-19T07:28:51.550Z,4.40
2022-08-19T07:31:57.452Z,4.53
2022-08-19T07:35:04.353Z,5.10
2022-08-19T07:38:07.404Z,4.70
2022-08-19T07:41:15.127Z,4.37
2022-08-19T07:44:21.145Z,5.13
2022-08-19T07:47:48.354Z,4.30
2022-08-19T07:50:46.620Z,3.58
2022-08-19T07:53:51.685Z,3.65
2022-08-19T07:56:54.795Z,4.25
2022-08-19T07:59:58.351Z,4.00
2022-08-19T08:03:01.093Z,3.92
2022-08-19T08:06:22.885Z,3.90
2022-08-19T08:09:35.131Z,3.67
2022-08-19T08:12:42.401Z,3.97
2022-08-19T08:15:45.718Z,3.90
2022-08-19T08:18:50.495Z,3.35
2022-08-19T08:21:58.833Z,3.47
2022-08-19T08:25:08.645Z,3.60
2022-08-19T08:28:17.536Z,3.67
2022-08-19T08:31:21.138Z,3.05
2022-08-19T08:34:23.949Z,3.42
2022-08-19T08:37:27.145Z,3.70
2022-08-19T08:40:54.455Z,3.42
2022-08-19T08:47:05.235Z,3.15
2022-08-19T08:50:19.408Z,3.20
2022-08-19T08:53:29.228Z,3.22
2022-08-19T08:56:32.854Z,3.35
2022-08-19T08:59:38.578Z,3.37
2022-08-19T09:02:43.522Z,3.20
2022-08-19T09:05:51.889Z,3.35
2022-08-19T09:09:42.083Z,3.30
2022-08-19T09:13:15.757Z,3.20
2022-08-19T09:16:21.995Z,3.35
2022-08-19T09:19:31.829Z,3.30
2022-08-19T09:22:40.474Z,3.72
2022-08-19T09:25:43.204Z,3.08
2022-08-19T09:28:49.040Z,2.92
2022-08-19T09:31:51.640Z,3.35
2022-08-19T09:34:59.051Z,8.85
2022-08-19T09:38:02.955Z,3.03
2022-08-19T09:41:08.841Z,3.12
2022-08-19T09:44:14.298Z,3.08
2022-08-19T09:47:23.522Z,3.12
2022-08-19T09:50:29.203Z,3.47
2022-08-19T09:53:32.239Z,3.10
2022-08-19T09:56:38.187Z,3.22
2022-08-19T09:59:41.280Z,3.30
2022-08-19T10:02:45.691Z,2.87
2022-08-19T10:05:55.223Z,3.30
2022-08-19T10:08:58.266Z,3.43
2022-08-19T10:12:04.501Z,3.40
2022-08-19T10:15:09.360Z,3.70
2022-08-19T10:18:12.507Z,3.10
2022-08-19T10:21:19.659Z,3.37
2022-08-19T10:24:25.304Z,3.05
2022-08-19T10:27:28.002Z,2.97
2022-08-19T10:30:40.566Z,2.87
2022-08-19T10:33:53.353Z,3.20
2022-08-19T10:37:00.869Z,3.10
2022-08-19T10:40:08.555Z,3.20
2022-08-19T10:43:11.369Z,3.92
2022-08-19T10:46:17.004Z,3.53
2022-08-19T10:49:23.907Z,2.80
2022-08-19T10:52:38.795Z,2.75
2022-08-19T10:56:00.677Z,3.00
2022-08-19T10:59:07.253Z,3.10
2022-08-19T11:05:18.306Z,3.10
2022-08-19T11:08:23.874Z,2.58
2022-08-19T11:11:27.605Z,3.20
2022-08-19T11:14:34.743Z,2.85
2022-08-19T11:17:37.407Z,2.72
2022-08-19T11:20:40.698Z,2.78
2022-08-19T11:23:44.292Z,3.00
2022-08-19T11:26:55.037Z,2.92
2022-08-19T11:29:58.059Z,2.83
2022-08-19T11:33:02.017Z,2.95
2022-08-19T11:36:07.113Z,3.50
2022-08-19T11:39:14.937Z,3.33
2022-08-19T11:42:50.555Z,3.28
2022-08-19T11:45:55.176Z,4.07
2022-08-19T11:49:01.439Z,3.37
2022-08-19T11:52:04.457Z,3.95
2022-08-19T11:55:08.148Z,3.40
2022-08-19T11:58:18.915Z,2.90
2022-08-19T12:01:23.441Z,3.33
2022-08-19T12:04:26.301Z,3.40
2022-08-19T12:07:30.105Z,3.40
2022-08-19T12:10:34.479Z,3.35
2022-08-19T12:13:37.727Z,3.75
2022-08-19T12:16:44.809Z,4.57
2022-08-19T12:19:54.791Z,4.20
2022-08-19T12:22:57.928Z,4.43
2022-08-19T12:26:03.312Z,3.75
2022-08-19T12:29:06.393Z,3.20
2022-08-19T12:32:12.733Z,2.95
2022-08-19T12:35:18.750Z,6.40
2022-08-19T12:38:25.220Z,7.97
2022-08-19T12:41:28.113Z,7.68
2022-08-19T12:44:32.934Z,6.15
2022-08-19T12:47:41.574Z,5.30
2022-08-19T12:50:47.997Z,4.57
2022-08-19T12:53:51.018Z,4.90
2022-08-19T12:56:53.657Z,5.28
2022-08-19T12:59:56.823Z,5.00
2022-08-19T13:03:00.679Z,5.65
2022-08-19T13:06:04.235Z,6.05
2022-08-19T13:09:06.739Z,6.22
2022-08-19T13:12:14.056Z,6.15
2022-08-19T13:15:23.726Z,6.70
2022-08-19T13:18:28.488Z,6.75
2022-08-19T13:21:32.496Z,6.30
2022-08-19T13:24:37.872Z,6.68
2022-08-19T13:27:47.516Z,6.40
2022-08-19T13:31:11.099Z,6.72
2022-08-19T13:34:15.100Z,5.97
2022-08-19T13:37:38.265Z,6.37
2022-08-19T13:40:41.800Z,6.03
2022-08-19T13:43:44.690Z,5.60
2022-08-19T13:46:53.979Z,5.75
2022-08-19T13:49:57.096Z,3.87
2022-08-19T13:53:00.767Z,3.00
2022-08-19T13:56:10.333Z,3.17
2022-08-19T13:59:13.372Z,2.70
2022-08-19T14:02:18.357Z,2.83
2022-08-19T14:05:21.969Z,3.53
2022-08-19T14:08:25.391Z,3.87
2022-08-19T14:11:30.400Z,3.25
2022-08-19T14:14:33.536Z,3.60
2022-08-19T14:17:42.735Z,3.15
2022-08-19T14:20:45.937Z,2.97
2022-08-19T14:23:48.785Z,4.97
2022-08-19T14:26:53.497Z,3.28
2022-08-19T14:29:58.071Z,3.20
2022-08-19T14:33:03.077Z,3.47
2022-08-19T14:36:07.714Z,2.62
2022-08-19T14:39:11.183Z,3.00
2022-08-19T14:42:15.517Z,3.00
2022-08-19T14:45:18.993Z,2.80
2022-08-19T14:48:22.579Z,2.92
2022-08-19T14:51:32.925Z,2.97
2022-08-19T14:54:35.882Z,2.85
2022-08-19T14:57:41.806Z,2.83
2022-08-19T15:00:44.710Z,3.03
2022-08-19T15:03:48.615Z,2.42
2022-08-19T15:06:51.934Z,2.35
2022-08-19T15:09:55.018Z,2.65
2022-08-19T15:12:57.982Z,2.40
2022-08-19T15:16:00.974Z,2.83
2022-08-19T15:19:03.873Z,2.28
2022-08-19T15:22:06.491Z,2.00
2022-08-19T15:25:11.884Z,2.40
2022-08-19T15:28:16.395Z,2.15
2022-08-19T15:31:28.071Z,2.17
2022-08-19T15:34:32.467Z,2.67
2022-08-19T15:37:37.010Z,2.40
2022-08-19T15:40:42.354Z,2.40
2022-08-19T15:43:45.189Z,2.72
2022-08-19T15:46:49.019Z,3.05
2022-08-19T15:49:58.908Z,2.47
2022-08-19T15:53:11.230Z,2.45
2022-08-19T15:56:15.184Z,2.72
2022-08-19T15:59:36.437Z,3.08
2022-08-19T16:03:08.383Z,2.37
2022-08-19T16:06:26.337Z,2.55
2022-08-19T16:09:31.057Z,2.05
2022-08-19T16:12:35.935Z,2.35
2022-08-19T16:15:39.980Z,2.45
2022-08-19T16:18:42.963Z,2.00
2022-08-19T16:21:49.122Z,2.08
2022-08-19T16:24:52.910Z,2.17
2022-08-19T16:28:07.845Z,1.92
2022-08-19T16:31:13.559Z,2.00
2022-08-19T16:34:16.225Z,3.05
2022-08-19T16:37:19.428Z,2.00
2022-08-19T16:40:23.996Z,2.20
2022-08-19T16:43:28.770Z,2.15
2022-08-19T16:46:31.544Z,2.30
2022-08-19T16:49:54.191Z,2.00
2022-08-19T16:52:58.887Z,2.55
2022-08-19T16:56:01.922Z,2.08
2022-08-19T16:59:04.804Z,2.45
2022-08-19T17:02:08.408Z,2.50
2022-08-19T17:05:12.930Z,2.20
2022-08-19T17:08:19.134Z,2.20
2022-08-19T17:11:24.397Z,3.75
2022-08-19T17:14:30.999Z,2.62
2022-08-19T17:17:37.441Z,3.47
2022-08-19T17:20:47.045Z,2.92
2022-08-19T17:23:51.178Z,2.62
2022-08-19T17:26:54.850Z,3.50
2022-08-19T17:30:00.233Z,2.62
2022-08-19T17:33:06.016Z,2.92
2022-08-19T17:36:10.969Z,3.00
2022-08-19T17:39:16.987Z,2.75
2022-08-19T17:42:20.313Z,2.45
2022-08-19T17:45:23.721Z,3.17
2022-08-19T17:48:27.710Z,2.65
2022-08-19T17:51:34.038Z,2.53
2022-08-19T17:54:41.218Z,2.40
2022-08-19T17:57:46.803Z,2.53
2022-08-19T18:00:55.298Z,2.75
2022-08-19T18:03:58.491Z,2.53
2022-08-19T18:07:05.839Z,2.60
2022-08-19T18:10:12.426Z,3.08
2022-08-19T18:13:17.222Z,2.75
2022-08-19T18:16:22.133Z,2.33
2022-08-19T18:19:31.519Z,2.90
2022-08-19T18:22:47.552Z,3.10
2022-08-19T18:25:50.368Z,2.92
2022-08-19T18:28:54.203Z,2.40
2022-08-19T18:31:57.827Z,2.85
2022-08-19T18:35:03.747Z,2.85
2022-08-19T18:38:26.400Z,2.20
2022-08-19T18:41:47.581Z,2.47
2022-08-19T18:45:08.882Z,2.67
2022-08-19T18:48:31.152Z,2.92
2022-08-19T18:51:34.318Z,2.47
2022-08-19T18:54:37.315Z,2.83
2022-08-19T18:57:39.807Z,2.60
2022-08-19T19:00:44.154Z,3.08
2022-08-19T19:03:50.998Z,2.92
2022-08-19T19:06:54.612Z,3.28
2022-08-19T19:09:57.185Z,3.80
2022-08-19T19:13:01.345Z,3.42
2022-08-19T19:16:04.531Z,3.87
2022-08-19T19:19:08.047Z,3.15
2022-08-19T19:22:18.817Z,3.12
2022-08-19T19:25:21.696Z,2.50
2022-08-19T19:28:27.532Z,2.70
2022-08-19T19:31:33.391Z,3.25
2022-08-19T19:34:38.551Z,2.95
2022-08-19T19:37:43.384Z,3.20
2022-08-19T19:40:46.057Z,3.15
2022-08-19T19:44:09.998Z,4.20
2022-08-19T19:47:16.506Z,3.85
2022-08-19T19:50:19.735Z,3.08
2022-08-19T19:53:26.251Z,3.17
2022-08-19T19:56:29.053Z,3.47
2022-08-19T19:59:32.846Z,3.12
2022-08-19T20:02:35.815Z,3.15
2022-08-19T20:05:41.307Z,3.22
2022-08-19T20:09:02.592Z,3.42
2022-08-19T20:12:05.584Z,4.47
2022-08-19T20:15:08.878Z,3.90
2022-08-19T20:18:14.354Z,4.05
2022-08-19T20:21:17.248Z,4.82
2022-08-19T20:24:28.057Z,4.75
2022-08-19T20:27:31.258Z,5.20
2022-08-19T20:30:46.415Z,5.50
2022-08-19T20:33:50.718Z,6.25
2022-08-19T20:36:53.552Z,6.47
2022-08-19T20:39:56.114Z,6.53
2022-08-19T20:42:58.942Z,7.40
2022-08-19T20:46:04.340Z,7.95
2022-08-19T20:49:08.163Z,7.65
2022-08-19T20:52:10.873Z,7.68
2022-08-19T20:55:13.743Z,8.48
2022-08-19T20:58:18.816Z,8.45
2022-08-19T21:01:22.135Z,8.20
2022-08-19T21:04:24.864Z,9.02
2022-08-19T21:07:38.951Z,7.85
2022-08-19T21:10:42.557Z,7.75
2022-08-19T21:13:45.373Z,8.32
2022-08-19T21:16:49.298Z,8.85
2022-08-19T21:19:52.154Z,9.88
2022-08-19T21:22:54.722Z,10.50
2022-08-19T21:25:59.216Z,10.25
2022-08-19T21:29:01.744Z,10.05
2022-08-19T21:32:05.210Z,9.80
2022-08-19T21:35:08.093Z,9.23
2022-08-19T21:38:10.852Z,9.02
2022-08-19T21:41:13.402Z,8.73
2022-08-19T21:44:16.158Z,9.50
2022-08-19T21:47:18.768Z,9.65
2022-08-19T21:50:23.900Z,9.60
2022-08-19T21:53:34.102Z,8.88
2022-08-19T21:56:42.256Z,8.20
2022-08-19T21:59:44.852Z,7.70
2022-08-19T22:02:47.677Z,7.65
2022-08-19T22:05:50.862Z,7.50
2022-08-19T22:08:56.653Z,8.27
2022-08-19T22:11:59.674Z,9.38
2022-08-19T22:15:02.444Z,8.98
2022-08-19T22:18:06.033Z,8.65
2022-08-19T22:21:12.019Z,8.07
2022-08-19T22:24:15.055Z,8.82
2022-08-19T22:27:17.632Z,9.95
2022-08-19T22:30:22.279Z,9.13
2022-08-19T22:33:27.648Z,9.07
2022-08-19T22:36:35.453Z,9.63
2022-08-19T22:39:38.030Z,9.40
2022-08-19T22:42:40.917Z,9.35
2022-08-19T22:45:44.894Z,8.77
2022-08-19T22:48:49.472Z,9.30
2022-08-19T22:52:19.320Z,9.55
2022-08-19T22:55:22.193Z,9.05
2022-08-19T22:58:28.311Z,9.60
2022-08-19T23:01:31.244Z,9.38
2022-08-19T23:04:34.787Z,9.70
2022-08-19T23:07:38.116Z,9.25
2022-08-19T23:10:40.764Z,9.05
2022-08-19T23:13:43.751Z,9.00
2022-08-19T23:16:50.838Z,8.60
2022-08-19T23:19:53.950Z,8.25
2022-08-19T23:22:57.559Z,9.20
2022-08-19T23:26:00.302Z,8.25
2022-08-19T23:29:22.394Z,7.97
2022-08-19T23:32:25.557Z,7.95
2022-08-19T23:35:34.010Z,7.53
2022-08-19T23:38:36.776Z,7.47
2022-08-19T23:41:39.228Z,8.18
2022-08-19T23:44:51.897Z,7.90
2022-08-19T23:47:57.893Z,7.40
2022-08-19T23:51:03.881Z,7.80
2022-08-19T23:54:06.818Z,8.68
2022-08-19T23:57:13.746Z,8.13
